Time;durP1;ratioP1;P1;durP2;ratioP2;P2;SDS_P1;SDS_P2;PMS_P1;PMS_P2;Temp;Humidity;BMP_temperature;BMP_pressure;BME280_temperature;BME280_humidity;BME280_pressure;Samples;Min_cycle;Max_cycle;Signal;HPM_P1;HPM_P2
2021/08/25 00:00:21;;;;;;;16.27;13.98;;;12.10;99.90;;;;;;5056234;28;20045;-89
2021/08/25 00:02:48;;;;;;;15.65;13.50;;;12.10;99.90;;;;;;5056176;28;20390;-89
2021/08/25 00:05:16;;;;;;;16.75;13.45;;;12.20;99.90;;;;;;5056449;28;20072;-88
2021/08/25 00:07:43;;;;;;;14.70;13.20;;;12.20;99.90;;;;;;5056540;28;20045;-88
2021/08/25 00:10:10;;;;;;;17.92;13.95;;;12.20;99.90;;;;;;5073872;28;20549;-88
2021/08/25 00:12:37;;;;;;;15.15;12.93;;;12.20;99.90;;;;;;5056330;28;20127;-89
2021/08/25 00:15:06;;;;;;;21.10;14.95;;;12.30;99.90;;;;;;5056693;28;20108;-88
2021/08/25 00:17:33;;;;;;;20.67;14.30;;;12.30;99.90;;;;;;5073615;28;20044;-88
2021/08/25 00:20:00;;;;;;;26.90;16.20;;;12.30;99.90;;;;;;5056068;28;20049;-88
2021/08/25 00:22:27;;;;;;;20.17;14.38;;;12.40;99.90;;;;;;5056080;28;20131;-88
2021/08/25 00:24:54;;;;;;;24.02;15.27;;;12.40;99.90;;;;;;5056093;28;20048;-88
2021/08/25 00:27:21;;;;;;;16.10;13.27;;;12.40;99.90;;;;;;5055844;28;20535;-88
2021/08/25 00:29:47;;;;;;;18.35;13.57;;;12.40;99.90;;;;;;5057319;28;20047;-88
2021/08/25 00:32:14;;;;;;;13.30;11.90;;;12.40;99.90;;;;;;5056397;28;20044;-88
2021/08/25 00:34:41;;;;;;;16.48;11.80;;;12.40;99.90;;;;;;5073573;28;20154;-88
2021/08/25 00:37:08;;;;;;;15.43;11.85;;;12.40;99.90;;;;;;5055907;28;20045;-88
2021/08/25 00:39:35;;;;;;;11.88;10.40;;;12.40;99.90;;;;;;5056013;28;20059;-88
2021/08/25 00:42:01;;;;;;;18.40;11.70;;;12.40;99.90;;;;;;5056181;28;20049;-88
2021/08/25 00:44:28;;;;;;;15.77;11.85;;;12.40;99.90;;;;;;5055918;28;20048;-88
2021/08/25 00:46:55;;;;;;;12.30;11.07;;;12.40;99.90;;;;;;5074421;28;20504;-87
2021/08/25 00:49:22;;;;;;;14.38;10.93;;;12.40;99.90;;;;;;5058714;28;20059;-88
2021/08/25 00:51:49;;;;;;;13.23;10.90;;;12.40;99.90;;;;;;5056358;28;20063;-88
2021/08/25 00:54:17;;;;;;;11.45;9.90;;;12.40;99.90;;;;;;5055719;28;20051;-88
2021/08/25 00:56:50;;;;;;;15.68;11.25;;;12.40;99.90;;;;;;5073315;28;20049;-88
2021/08/25 00:59:18;;;;;;;19.50;11.40;;;12.40;99.90;;;;;;5055658;28;20052;-88
2021/08/25 01:02:07;;;;;;;14.82;10.35;;;12.40;99.90;;;;;;5055757;28;20064;-88
2021/08/25 01:04:56;;;;;;;19.92;11.13;;;12.40;99.90;;;;;;5055595;28;20052;-88
2021/08/25 01:07:27;;;;;;;16.88;10.95;;;12.40;99.90;;;;;;5055696;28;20059;-88
2021/08/25 01:09:55;;;;;;;16.10;10.60;;;12.30;99.90;;;;;;5055540;28;20036;-87
2021/08/25 01:12:26;;;;;;;27.35;12.70;;;12.30;99.90;;;;;;5055652;28;20045;-88
2021/08/25 01:14:54;;;;;;;12.38;10.82;;;12.30;99.90;;;;;;5058651;28;20052;-87
2021/08/25 01:17:23;;;;;;;21.45;12.25;;;12.20;99.90;;;;;;5060825;28;20052;-88
2021/08/25 01:20:02;;;;;;;13.40;11.15;;;12.10;99.90;;;;;;5059322;28;20048;-88
2021/08/25 01:22:28;;;;;;;13.52;11.43;;;12.10;99.90;;;;;;5059158;28;20055;-87
2021/08/25 01:24:56;;;;;;;15.88;9.75;;;12.10;99.90;;;;;;5059276;28;20056;-87
2021/08/25 01:27:26;;;;;;;9.82;8.75;;;12.10;99.90;;;;;;5076576;28;20068;-88
2021/08/25 01:29:53;;;;;;;10.48;8.63;;;12.10;99.90;;;;;;5076686;28;20420;-87
2021/08/25 01:32:20;;;;;;;8.80;7.90;;;12.00;99.90;;;;;;5059552;28;20076;-88
2021/08/25 01:34:57;;;;;;;8.27;7.47;;;12.10;99.90;;;;;;5076598;28;20083;-87
2021/08/25 01:37:27;;;;;;;11.75;8.00;;;12.00;99.90;;;;;;5059159;28;20080;-88
2021/08/25 01:39:55;;;;;;;8.75;7.47;;;12.00;99.90;;;;;;5058891;28;20049;-87
2021/08/25 01:42:22;;;;;;;8.77;7.40;;;11.90;99.90;;;;;;5058654;28;20048;-88
2021/08/25 01:44:51;;;;;;;8.40;7.43;;;11.90;99.90;;;;;;5076767;28;20049;-87
2021/08/25 01:47:19;;;;;;;7.57;6.80;;;11.90;99.90;;;;;;5058826;28;20132;-87
2021/08/25 01:49:47;;;;;;;8.57;7.80;;;11.90;99.90;;;;;;5058931;28;20412;-88
2021/08/25 01:52:14;;;;;;;7.97;7.13;;;11.90;99.90;;;;;;5076582;28;20078;-88
2021/08/25 01:54:42;;;;;;;7.50;6.65;;;11.90;99.90;;;;;;5059017;28;20501;-88
2021/08/25 01:57:09;;;;;;;7.55;6.75;;;11.90;99.90;;;;;;5058714;28;20049;-87
2021/08/25 01:59:36;;;;;;;7.65;6.85;;;11.90;99.90;;;;;;5076188;28;20045;-88
2021/08/25 02:02:04;;;;;;;7.57;6.78;;;11.90;99.90;;;;;;5059167;28;20156;-87
2021/08/25 02:04:32;;;;;;;8.52;6.68;;;11.90;99.90;;;;;;5058757;28;20497;-87
2021/08/25 02:06:59;;;;;;;7.82;6.93;;;11.90;99.90;;;;;;5061185;28;20104;-87
2021/08/25 02:09:25;;;;;;;8.65;6.57;;;11.80;99.90;;;;;;5059412;28;20044;-87
2021/08/25 02:11:52;;;;;;;8.68;7.38;;;11.80;99.90;;;;;;5058453;28;20052;-87
2021/08/25 02:14:19;;;;;;;6.90;6.18;;;11.70;99.90;;;;;;5058090;28;20395;-87
2021/08/25 02:16:46;;;;;;;7.80;7.10;;;11.70;99.90;;;;;;5058243;28;20054;-87
2021/08/25 02:19:12;;;;;;;7.70;6.90;;;11.70;99.90;;;;;;5075826;28;20147;-87
2021/08/25 02:21:39;;;;;;;8.93;6.80;;;11.60;99.90;;;;;;5075731;28;20064;-87
2021/08/25 02:24:06;;;;;;;7.55;6.95;;;11.60;99.90;;;;;;5075625;28;20055;-87
2021/08/25 02:26:33;;;;;;;8.60;6.75;;;11.60;99.90;;;;;;5057890;28;20058;-87
2021/08/25 02:29:00;;;;;;;9.00;7.10;;;11.50;99.90;;;;;;5075483;28;20116;-87
2021/08/25 02:31:26;;;;;;;7.78;7.05;;;11.40;99.90;;;;;;5075431;28;20136;-87
2021/08/25 02:33:53;;;;;;;7.38;6.68;;;11.40;99.90;;;;;;5057874;28;20127;-87
2021/08/25 02:36:20;;;;;;;8.23;6.97;;;11.40;99.90;;;;;;5057768;28;20048;-87
2021/08/25 02:38:48;;;;;;;8.00;6.53;;;11.40;99.90;;;;;;5075530;28;20570;-87
2021/08/25 02:41:17;;;;;;;6.20;5.45;;;11.40;99.90;;;;;;5057752;28;20059;-87
2021/08/25 02:43:44;;;;;;;6.13;5.25;;;11.40;99.90;;;;;;5075137;28;20045;-86
2021/08/25 02:46:11;;;;;;;6.53;5.93;;;11.30;99.90;;;;;;5057627;28;20055;-87
2021/08/25 02:48:38;;;;;;;6.18;5.38;;;11.30;99.90;;;;;;5057549;28;20473;-87
2021/08/25 02:51:05;;;;;;;6.80;5.97;;;11.30;99.90;;;;;;5074836;28;20052;-87
2021/08/25 02:53:32;;;;;;;5.65;5.18;;;11.30;99.90;;;;;;5057379;28;20076;-88
2021/08/25 02:55:59;;;;;;;5.22;4.70;;;11.30;99.90;;;;;;5057683;28;20480;-88
2021/08/25 02:58:25;;;;;;;5.80;5.30;;;11.20;99.90;;;;;;5074804;28;20052;-87
2021/08/25 03:00:54;;;;;;;5.57;5.07;;;11.20;99.90;;;;;;5074903;28;20140;-87
2021/08/25 03:03:21;;;;;;;6.15;5.57;;;11.10;99.90;;;;;;5075044;28;20059;-87
2021/08/25 03:05:48;;;;;;;5.90;5.40;;;11.10;99.90;;;;;;5057121;28;20052;-89
2021/08/25 03:08:15;;;;;;;5.90;5.40;;;11.00;99.90;;;;;;5057665;28;20053;-87
2021/08/25 03:10:42;;;;;;;5.30;4.70;;;11.00;99.90;;;;;;5057079;28;20044;-87
2021/08/25 03:13:09;;;;;;;9.68;6.18;;;11.00;99.90;;;;;;5057610;28;20048;-89
2021/08/25 03:15:36;;;;;;;5.78;4.68;;;10.90;99.90;;;;;;5057618;28;20054;-91
2021/08/25 03:18:03;;;;;;;7.05;5.53;;;10.80;99.90;;;;;;5057137;28;20048;-91
2021/08/25 03:20:30;;;;;;;5.90;5.40;;;10.80;99.90;;;;;;5074572;28;20057;-91
2021/08/25 03:22:57;;;;;;;6.95;5.80;;;10.70;99.90;;;;;;5075078;28;20431;-87
2021/08/25 03:25:23;;;;;;;7.80;5.18;;;10.70;99.90;;;;;;5078727;28;20128;-88
2021/08/25 03:27:50;;;;;;;6.38;5.82;;;10.60;99.90;;;;;;5064312;28;20143;-88
2021/08/25 03:30:17;;;;;;;6.40;5.75;;;10.60;99.90;;;;;;5074416;28;20123;-88
2021/08/25 03:32:44;;;;;;;6.00;5.45;;;10.60;99.90;;;;;;5056765;28;20051;-87
2021/08/25 03:35:11;;;;;;;6.60;5.97;;;10.70;99.90;;;;;;5056860;28;20055;-88
2021/08/25 03:37:38;;;;;;;6.35;5.43;;;10.70;99.90;;;;;;5056075;28;20083;-88
2021/08/25 03:40:07;;;;;;;5.97;5.47;;;10.70;99.90;;;;;;5056975;28;20135;-88
2021/08/25 03:42:34;;;;;;;7.38;5.22;;;10.80;99.90;;;;;;5056652;28;20139;-88
2021/08/25 03:45:01;;;;;;;6.15;5.60;;;10.80;99.90;;;;;;5056643;28;20040;-88
2021/08/25 03:47:29;;;;;;;5.38;4.95;;;10.80;99.90;;;;;;5056523;28;20044;-88
2021/08/25 03:49:56;;;;;;;4.57;4.13;;;10.80;99.90;;;;;;5056597;28;20051;-88
2021/08/25 03:52:23;;;;;;;4.60;4.18;;;10.80;99.90;;;;;;5056541;28;20412;-88
2021/08/25 03:54:49;;;;;;;8.00;5.47;;;10.80;99.90;;;;;;5056601;28;20545;-88
2021/08/25 03:57:16;;;;;;;3.90;3.70;;;10.70;99.90;;;;;;5056422;28;20094;-88
2021/08/25 03:59:43;;;;;;;5.50;5.00;;;10.80;99.90;;;;;;5056453;28;20136;-90
2021/08/25 04:02:09;;;;;;;7.35;5.40;;;10.80;99.90;;;;;;5056327;28;20528;-91
2021/08/25 04:04:36;;;;;;;7.45;5.40;;;10.70;99.90;;;;;;5056546;28;20083;-90
2021/08/25 04:07:03;;;;;;;6.25;4.85;;;10.70;99.90;;;;;;5056580;28;20055;-90
2021/08/25 04:09:30;;;;;;;4.55;4.15;;;10.80;99.90;;;;;;5056624;28;20044;-88
2021/08/25 04:11:56;;;;;;;5.07;4.68;;;10.70;99.90;;;;;;5056414;28;20047;-90
2021/08/25 04:14:23;;;;;;;4.25;3.85;;;10.70;99.90;;;;;;5056616;28;20052;-89
2021/08/25 04:16:50;;;;;;;5.00;4.50;;;10.70;99.90;;;;;;5056209;28;20127;-90
2021/08/25 04:19:17;;;;;;;4.97;4.47;;;10.60;99.90;;;;;;5056167;28;20048;-90
2021/08/25 04:21:44;;;;;;;5.18;4.55;;;10.60;99.90;;;;;;5056207;28;20054;-90
2021/08/25 04:24:11;;;;;;;9.95;5.10;;;10.60;99.90;;;;;;5057032;28;20045;-90
2021/08/25 04:26:37;;;;;;;10.32;5.00;;;10.50;99.90;;;;;;5056344;28;20060;-90
2021/08/25 04:29:04;;;;;;;4.72;4.32;;;10.50;99.90;;;;;;5052452;28;20068;-90
2021/08/25 04:31:31;;;;;;;5.10;4.60;;;10.50;99.90;;;;;;5052692;28;20140;-89
2021/08/25 04:33:58;;;;;;;9.25;4.75;;;10.50;99.90;;;;;;5052869;28;20045;-91
2021/08/25 04:36:25;;;;;;;6.38;4.45;;;10.60;99.90;;;;;;5052601;28;20061;-90
2021/08/25 04:38:51;;;;;;;4.43;4.13;;;10.50;99.90;;;;;;5052447;28;20059;-90
2021/08/25 04:41:18;;;;;;;4.80;4.47;;;10.50;99.90;;;;;;5052578;28;20144;-88
2021/08/25 04:43:45;;;;;;;4.88;4.38;;;10.50;99.90;;;;;;5054378;28;20072;-89
2021/08/25 04:46:16;;;;;;;4.78;4.15;;;10.50;99.90;;;;;;5058744;28;20511;-89
2021/08/25 04:48:44;;;;;;;4.60;4.15;;;10.50;99.90;;;;;;5055224;28;20532;-90
2021/08/25 04:51:12;;;;;;;5.07;4.68;;;10.50;99.90;;;;;;5056459;28;20428;-90
2021/08/25 04:53:39;;;;;;;4.65;4.22;;;10.50;99.90;;;;;;5056611;28;20139;-90
2021/08/25 04:56:06;;;;;;;6.00;4.30;;;10.50;99.90;;;;;;5056843;28;20049;-90
2021/08/25 04:58:33;;;;;;;5.20;4.22;;;10.40;99.90;;;;;;5056408;28;20144;-90
2021/08/25 05:01:00;;;;;;;4.35;3.63;;;10.40;99.90;;;;;;5056309;28;20128;-90
2021/08/25 05:03:27;;;;;;;4.05;3.63;;;10.40;99.90;;;;;;5056411;28;20049;-90
2021/08/25 05:05:54;;;;;;;4.25;3.95;;;10.40;99.90;;;;;;5056154;28;20049;-90
2021/08/25 05:08:22;;;;;;;3.88;3.63;;;10.50;99.90;;;;;;5056167;28;20053;-90
2021/08/25 05:10:49;;;;;;;3.28;3.08;;;10.50;99.90;;;;;;5056170;28;20131;-89
2021/08/25 05:13:16;;;;;;;4.40;3.70;;;10.50;99.90;;;;;;5055866;28;20059;-89
2021/08/25 05:15:44;;;;;;;4.07;3.40;;;10.50;99.90;;;;;;5056035;28;20207;-90
2021/08/25 05:18:11;;;;;;;3.47;3.20;;;10.50;99.90;;;;;;5056590;28;20072;-90
2021/08/25 05:20:38;;;;;;;3.88;3.58;;;10.50;99.90;;;;;;5055840;28;20049;-89
2021/08/25 05:23:05;;;;;;;3.20;3.00;;;10.60;99.90;;;;;;5056079;28;20053;-90
2021/08/25 05:25:32;;;;;;;3.30;3.00;;;10.50;99.90;;;;;;5055844;28;20053;-90
2021/08/25 05:27:59;;;;;;;4.38;3.60;;;10.60;99.90;;;;;;5055855;28;20074;-89
2021/08/25 05:30:25;;;;;;;3.53;3.22;;;10.50;99.90;;;;;;5055918;28;20438;-89
2021/08/25 05:32:52;;;;;;;5.00;3.50;;;10.60;99.90;;;;;;5056274;28;20548;-90
2021/08/25 05:35:20;;;;;;;3.60;3.30;;;10.50;99.90;;;;;;5055742;28;20111;-89
2021/08/25 05:37:48;;;;;;;4.22;3.03;;;10.60;99.90;;;;;;5055917;28;20049;-90
2021/08/25 05:40:16;;;;;;;7.57;3.20;;;10.60;99.90;;;;;;5055809;28;20409;-90
2021/08/25 05:42:45;;;;;;;9.65;3.58;;;10.70;99.90;;;;;;5055917;28;20425;-90
2021/08/25 05:45:12;;;;;;;2.92;2.72;;;10.70;99.90;;;;;;5055600;28;20045;-89
2021/08/25 05:47:40;;;;;;;3.10;2.88;;;10.70;99.90;;;;;;5055531;28;20044;-90
2021/08/25 05:50:08;;;;;;;3.65;3.38;;;10.80;99.90;;;;;;5055650;28;20049;-90
2021/08/25 05:52:35;;;;;;;4.10;3.00;;;10.80;99.90;;;;;;5055161;28;20128;-89
2021/08/25 05:55:02;;;;;;;4.00;3.38;;;10.90;99.90;;;;;;5055506;28;20079;-90
2021/08/25 05:57:29;;;;;;;3.13;2.72;;;10.90;99.90;;;;;;5055277;28;20045;-90
2021/08/25 05:59:56;;;;;;;3.88;3.05;;;10.90;99.90;;;;;;5054637;28;20052;-90
2021/08/25 06:02:23;;;;;;;5.10;3.15;;;11.00;99.90;;;;;;5056779;28;20072;-89
2021/08/25 06:04:50;;;;;;;3.08;2.88;;;11.10;99.90;;;;;;5058111;28;20056;-89
2021/08/25 06:07:17;;;;;;;2.80;2.60;;;11.20;99.90;;;;;;5055143;28;20071;-90
2021/08/25 06:09:43;;;;;;;6.18;3.42;;;11.40;99.90;;;;;;5054830;28;20063;-90
2021/08/25 06:12:10;;;;;;;6.82;3.55;;;11.40;99.90;;;;;;5055019;28;20513;-89
2021/08/25 06:14:38;;;;;;;3.75;3.22;;;11.50;99.90;;;;;;5054843;28;20136;-89
2021/08/25 06:17:05;;;;;;;2.72;2.53;;;11.50;99.90;;;;;;5055287;28;20081;-89
2021/08/25 06:19:32;;;;;;;2.78;2.58;;;11.60;99.90;;;;;;5054867;28;20051;-90
2021/08/25 06:21:59;;;;;;;2.92;2.67;;;11.80;99.90;;;;;;5054670;28;20052;-90
2021/08/25 06:24:25;;;;;;;3.97;3.03;;;11.90;99.90;;;;;;5054659;28;20469;-89
2021/08/25 06:26:52;;;;;;;3.10;2.90;;;11.90;99.90;;;;;;5054743;28;20371;-90
2021/08/25 06:29:19;;;;;;;3.33;3.03;;;11.90;99.90;;;;;;5054289;28;20045;-90
2021/08/25 06:31:46;;;;;;;3.13;2.70;;;12.00;99.90;;;;;;5054668;28;20059;-90
2021/08/25 06:34:12;;;;;;;2.88;2.65;;;12.00;99.90;;;;;;5054593;28;20481;-90
2021/08/25 06:36:39;;;;;;;3.10;2.90;;;12.10;99.90;;;;;;5054616;28;20139;-90
2021/08/25 06:39:07;;;;;;;2.70;2.50;;;12.20;99.90;;;;;;5054683;28;20045;-89
2021/08/25 06:41:34;;;;;;;2.63;2.42;;;12.30;99.90;;;;;;5054548;28;20140;-90
2021/08/25 06:44:00;;;;;;;5.68;3.20;;;12.50;99.90;;;;;;5054543;28;20136;-89
2021/08/25 06:46:27;;;;;;;7.07;3.70;;;12.60;99.90;;;;;;5054498;28;20140;-89
2021/08/25 06:48:54;;;;;;;7.00;3.78;;;12.70;99.90;;;;;;5054557;28;20068;-90
2021/08/25 06:51:21;;;;;;;6.78;4.85;;;12.70;99.90;;;;;;5054371;28;20049;-89
2021/08/25 06:53:47;;;;;;;19.65;16.02;;;12.80;99.90;;;;;;5054358;28;20417;-90
2021/08/25 06:56:14;;;;;;;12.98;8.63;;;12.90;99.90;;;;;;5054462;28;20417;-91
2021/08/25 06:58:41;;;;;;;15.18;5.97;;;12.80;99.90;;;;;;5054040;28;20136;-88
2021/08/25 07:01:07;;;;;;;9.55;4.90;;;12.80;99.90;;;;;;5054273;28;20048;-88
2021/08/25 07:03:35;;;;;;;14.05;5.60;;;13.00;99.90;;;;;;5054221;28;20057;-87
2021/08/25 07:06:03;;;;;;;7.15;4.35;;;13.30;99.90;;;;;;5054214;28;20049;-87
2021/08/25 07:08:29;;;;;;;11.93;4.60;;;13.40;99.90;;;;;;5053723;28;20565;-88
2021/08/25 07:10:56;;;;;;;10.20;4.30;;;13.70;99.90;;;;;;5053358;28;20045;-88
2021/08/25 07:13:23;;;;;;;6.38;3.50;;;14.20;99.90;;;;;;5053507;28;20080;-86
2021/08/25 07:15:49;;;;;;;9.45;3.90;;;14.90;99.90;;;;;;5053990;28;20401;-88
2021/08/25 07:18:16;;;;;;;10.80;4.00;;;15.00;99.90;;;;;;5054005;28;20091;-87
2021/08/25 07:20:45;;;;;;;7.18;3.60;;;14.80;99.90;;;;;;5054080;28;20060;-88
2021/08/25 07:23:12;;;;;;;12.23;4.13;;;14.40;99.90;;;;;;5056150;28;20068;-88
2021/08/25 07:25:39;;;;;;;8.05;3.88;;;14.40;99.90;;;;;;5053684;28;20059;-89
2021/08/25 07:28:06;;;;;;;10.40;4.63;;;14.10;99.90;;;;;;5053592;28;20060;-87
2021/08/25 07:30:33;;;;;;;9.50;3.88;;;14.30;99.90;;;;;;5053558;28;20059;-88
2021/08/25 07:33:01;;;;;;;9.27;4.03;;;14.60;99.90;;;;;;5053461;28;20493;-88
2021/08/25 07:35:31;;;;;;;7.53;3.50;;;15.10;99.90;;;;;;5053585;28;20059;-87
2021/08/25 07:37:58;;;;;;;9.60;3.80;;;15.40;99.90;;;;;;5053420;28;20067;-87
2021/08/25 07:40:25;;;;;;;7.47;3.08;;;15.90;99.90;;;;;;5053426;28;20057;-88
2021/08/25 07:42:51;;;;;;;6.25;3.75;;;16.00;99.90;;;;;;5053025;28;20044;-87
2021/08/25 07:45:19;;;;;;;10.40;3.85;;;16.70;99.90;;;;;;5053404;28;20414;-87
2021/08/25 07:47:46;;;;;;;5.82;2.67;;;17.30;99.90;;;;;;5053432;28;20553;-87
2021/08/25 07:50:14;;;;;;;5.78;2.60;;;17.80;99.90;;;;;;5053271;28;20048;-88
2021/08/25 07:52:42;;;;;;;6.30;2.60;;;18.70;99.90;;;;;;5053486;28;20051;-87
2021/08/25 07:55:09;;;;;;;3.65;2.90;;;19.90;99.90;;;;;;5053055;28;20052;-88
2021/08/25 07:57:35;;;;;;;4.25;2.03;;;21.90;99.90;;;;;;5053167;28;20482;-87
2021/08/25 08:00:03;;;;;;;6.30;2.97;;;23.00;99.90;;;;;;5053134;28;20079;-87
2021/08/25 08:02:30;;;;;;;3.50;2.35;;;23.90;99.90;;;;;;5052602;28;20123;-88
2021/08/25 08:04:57;;;;;;;3.70;2.55;;;24.60;96.50;;;;;;5053041;28;20049;-87
2021/08/25 08:07:24;;;;;;;6.10;3.00;;;;;;;;;;5052982;28;20136;-88
2021/08/25 08:09:50;;;;;;;4.47;2.90;;;26.80;85.50;;;;;;5053242;28;20053;-88
2021/08/25 08:12:17;;;;;;;7.80;2.90;;;26.80;83.30;;;;;;5053015;28;20078;-88
2021/08/25 08:14:44;;;;;;;4.32;2.65;;;27.90;80.00;;;;;;5052821;28;20053;-89
2021/08/25 08:17:11;;;;;;;5.22;3.13;;;27.80;76.60;;;;;;5052975;28;20143;-88
2021/08/25 08:19:38;;;;;;;6.47;2.97;;;28.00;77.00;;;;;;5052682;28;20045;-88
2021/08/25 08:22:05;;;;;;;5.03;2.78;;;28.10;77.10;;;;;;5052296;28;20048;-88
2021/08/25 08:24:32;;;;;;;3.45;2.97;;;28.80;76.70;;;;;;5052512;28;20136;-87
2021/08/25 08:26:59;;;;;;;6.10;3.28;;;28.30;75.80;;;;;;5052628;28;20120;-88
2021/08/25 08:29:27;;;;;;;4.05;2.55;;;28.60;75.80;;;;;;5052330;28;20124;-89
2021/08/25 08:31:54;;;;;;;5.13;2.67;;;28.80;72.70;;;;;;5053013;28;20071;-89
2021/08/25 08:34:20;;;;;;;5.05;2.50;;;28.70;71.70;;;;;;5053258;28;20080;-87
2021/08/25 08:36:47;;;;;;;2.63;2.42;;;28.30;75.50;;;;;;5052574;28;20045;-88
2021/08/25 08:39:14;;;;;;;4.63;2.50;;;28.90;73.80;;;;;;5053601;28;20047;-88
2021/08/25 08:41:41;;;;;;;3.80;2.70;;;28.80;74.00;;;;;;5055327;28;20478;-88
2021/08/25 08:44:16;;;;;;;6.20;2.58;;;29.00;72.60;;;;;;5052957;28;20059;-88
2021/08/25 08:46:43;;;;;;;4.65;2.80;;;29.40;71.70;;;;;;5052300;28;20494;-90
2021/08/25 08:49:13;;;;;;;4.32;2.47;;;30.20;69.10;;;;;;5052404;28;20056;-91
2021/08/25 08:51:40;;;;;;;2.90;2.63;;;29.30;69.40;;;;;;5052598;28;20504;-89
2021/08/25 08:54:07;;;;;;;4.53;2.92;;;29.20;71.40;;;;;;5052738;28;20490;-90
2021/08/25 08:56:34;;;;;;;2.97;2.78;;;29.80;69.30;;;;;;5052036;28;20052;-88
2021/08/25 08:59:03;;;;;;;3.10;2.90;;;28.90;67.90;;;;;;5052275;28;20056;-87
2021/08/25 09:01:30;;;;;;;6.07;2.92;;;29.80;68.70;;;;;;5052407;28;20059;-88
2021/08/25 09:03:58;;;;;;;5.05;2.80;;;29.40;67.70;;;;;;5052363;28;20048;-89
2021/08/25 09:06:45;;;;;;;3.17;2.83;;;29.80;69.80;;;;;;5052311;28;20053;-87
2021/08/25 09:09:12;;;;;;;3.25;2.95;;;30.10;66.20;;;;;;5052382;28;20071;-87
2021/08/25 09:11:50;;;;;;;4.88;2.72;;;31.20;65.60;;;;;;5052141;28;20080;-88
2021/08/25 09:14:19;;;;;;;2.97;2.67;;;31.70;64.10;;;;;;5052440;28;20049;-89
2021/08/25 09:16:46;;;;;;;4.40;2.95;;;30.90;65.20;;;;;;5053751;28;20075;-88
2021/08/25 09:19:16;;;;;;;3.80;3.40;;;31.90;61.20;;;;;;5052169;28;20055;-87
2021/08/25 09:21:51;;;;;;;3.90;3.55;;;33.10;56.90;;;;;;5052168;28;20049;-88
2021/08/25 09:24:23;;;;;;;7.43;3.70;;;32.70;55.60;;;;;;5053201;28;20075;-90
2021/08/25 09:27:13;;;;;;;3.58;3.28;;;31.70;56.30;;;;;;5052471;28;20063;-88
2021/08/25 09:29:42;;;;;;;4.18;3.53;;;31.40;57.10;;;;;;5052178;28;20136;-88
2021/08/25 09:32:21;;;;;;;4.22;3.50;;;31.10;56.60;;;;;;5052018;28;20059;-88
2021/08/25 09:34:56;;;;;;;5.65;3.50;;;31.10;56.20;;;;;;5054309;28;20053;-87
2021/08/25 09:37:25;;;;;;;5.43;3.30;;;31.70;55.70;;;;;;5055660;28;20139;-87
2021/08/25 09:40:00;;;;;;;4.85;3.33;;;31.80;55.80;;;;;;5055810;28;20049;-87
2021/08/25 09:42:44;;;;;;;4.18;3.30;;;31.70;54.50;;;;;;5055704;28;20486;-88
2021/08/25 09:45:16;;;;;;;3.58;2.85;;;32.50;55.60;;;;;;5055244;28;20476;-88
2021/08/25 09:47:56;;;;;;;4.20;2.92;;;33.00;53.70;;;;;;5055104;28;20443;-87
2021/08/25 09:50:25;;;;;;;4.07;2.72;;;32.60;55.00;;;;;;5049455;28;20053;-88
2021/08/25 09:52:53;;;;;;;3.17;2.92;;;32.20;54.90;;;;;;5055045;28;20052;-87
2021/08/25 09:55:32;;;;;;;3.53;2.85;;;32.00;53.70;;;;;;5055166;28;20063;-87
2021/08/25 09:58:00;;;;;;;4.50;3.00;;;33.20;54.60;;;;;;5055340;28;20063;-87
2021/08/25 10:00:28;;;;;;;3.30;2.78;;;34.30;52.90;;;;;;5056192;28;20139;-88
2021/08/25 10:02:55;;;;;;;3.95;2.88;;;35.30;53.80;;;;;;5054909;28;20053;-88
2021/08/25 10:05:28;;;;;;;4.30;3.20;;;36.50;51.20;;;;;;5055426;28;20049;-87
2021/08/25 10:07:56;;;;;;;3.38;3.08;;;37.00;49.20;;;;;;5054967;28;20079;-87
2021/08/25 10:10:23;;;;;;;6.43;3.97;;;34.70;48.80;;;;;;5054871;28;20051;-86
2021/08/25 10:12:52;;;;;;;5.20;3.97;;;31.10;53.30;;;;;;5055220;28;20458;-87
2021/08/25 10:15:31;;;;;;;5.03;3.28;;;31.00;53.70;;;;;;5055905;28;20413;-87
2021/08/25 10:17:59;;;;;;;4.22;2.90;;;31.70;53.90;;;;;;5054778;28;20081;-87
2021/08/25 10:20:26;;;;;;;5.95;3.30;;;31.70;52.90;;;;;;5054708;28;20040;-87
2021/08/25 10:22:53;;;;;;;4.85;3.38;;;30.80;55.60;;;;;;5054474;28;20059;-87
2021/08/25 10:25:20;;;;;;;3.42;3.17;;;31.40;56.40;;;;;;5054830;28;20135;-86
2021/08/25 10:28:08;;;;;;;6.43;3.53;;;33.70;57.30;;;;;;5054465;28;20079;-88
2021/08/25 10:30:47;;;;;;;3.63;3.33;;;34.00;52.50;;;;;;5055279;28;20049;-86
2021/08/25 10:33:15;;;;;;;3.10;2.80;;;33.90;53.20;;;;;;5054826;28;20053;-85
2021/08/25 10:35:44;;;;;;;4.13;3.42;;;32.90;53.00;;;;;;5054426;28;20087;-86
2021/08/25 10:38:27;;;;;;;3.50;3.20;;;33.20;54.40;;;;;;5054382;28;20486;-87
2021/08/25 10:41:00;;;;;;;;;;;32.60;52.60;;;;;;5054769;28;20045;-89
2021/08/25 10:43:42;;;;;;;4.22;3.50;;;31.00;55.10;;;;;;5054471;28;19921;-88
2021/08/25 10:46:14;;;;;;;4.05;3.25;;;30.00;56.50;;;;;;5054220;28;20540;-86
2021/08/25 10:48:49;;;;;;;3.45;3.15;;;29.40;57.30;;;;;;5054193;28;20402;-87
2021/08/25 10:51:34;;;;;;;3.55;3.25;;;28.90;59.00;;;;;;5054431;28;20132;-87
2021/08/25 10:54:04;;;;;;;3.33;2.92;;;28.40;58.90;;;;;;5054095;28;20056;-86
2021/08/25 10:56:34;;;;;;;3.95;3.35;;;28.50;59.10;;;;;;5054145;28;20132;-86
2021/08/25 10:59:04;;;;;;;3.22;3.03;;;28.50;59.60;;;;;;5053929;28;20052;-87
2021/08/25 11:01:42;;;;;;;4.45;3.47;;;28.70;59.40;;;;;;5054010;28;20045;-87
2021/08/25 11:04:23;;;;;;;3.60;3.30;;;28.60;59.70;;;;;;5054902;28;20140;-87
2021/08/25 11:06:52;;;;;;;4.95;3.08;;;28.90;61.00;;;;;;5053638;28;20496;-87
2021/08/25 11:09:26;;;;;;;5.53;3.53;;;29.20;59.20;;;;;;5054721;28;20049;-87
2021/08/25 11:11:57;;;;;;;7.15;3.40;;;28.70;59.80;;;;;;5053696;28;20191;-89
2021/08/25 11:14:34;;;;;;;3.50;3.20;;;28.50;59.90;;;;;;5053837;28;20062;-86
2021/08/25 11:17:05;;;;;;;5.15;3.20;;;28.60;60.70;;;;;;5054242;28;20044;-87
2021/08/25 11:19:36;;;;;;;5.13;3.35;;;28.40;59.60;;;;;;5062240;28;20147;-87
2021/08/25 11:22:04;;;;;;;4.88;3.40;;;27.80;60.20;;;;;;5054761;28;20053;-87
2021/08/25 11:24:36;;;;;;;4.60;3.42;;;27.20;62.50;;;;;;5054171;28;20049;-86
2021/08/25 11:27:16;;;;;;;3.20;2.90;;;27.00;62.40;;;;;;5054582;28;20494;-86
2021/08/25 11:29:43;;;;;;;3.35;3.03;;;27.20;61.60;;;;;;5033494;28;20056;-86
2021/08/25 11:32:30;;;;;;;4.18;3.78;;;27.40;62.60;;;;;;5033640;28;20057;-86
2021/08/25 11:34:57;;;;;;;9.27;4.45;;;27.50;61.60;;;;;;5034204;28;20049;-86
2021/08/25 11:37:24;;;;;;;3.53;3.20;;;27.00;62.90;;;;;;5033307;28;20399;-86
2021/08/25 11:40:05;;;;;;;3.13;2.70;;;27.10;60.10;;;;;;5033177;28;20124;-86
2021/08/25 11:42:34;;;;;;;3.95;3.35;;;26.80;64.40;;;;;;5032990;28;20046;-86
2021/08/25 11:45:13;;;;;;;5.28;3.30;;;26.40;63.00;;;;;;5033151;28;20080;-87
2021/08/25 11:47:48;;;;;;;3.97;3.60;;;26.20;64.10;;;;;;5032945;28;20053;-86
2021/08/25 11:50:16;;;;;;;3.47;3.17;;;26.40;63.90;;;;;;5032865;28;20049;-93
2021/08/25 11:52:44;;;;;;;4.63;3.38;;;26.30;64.60;;;;;;5032677;28;20053;-87
2021/08/25 11:55:11;;;;;;;3.85;3.50;;;25.90;65.00;;;;;;5033131;28;20052;-85
2021/08/25 11:57:40;;;;;;;3.80;3.10;;;26.00;64.40;;;;;;5032400;28;20049;-86
2021/08/25 12:00:07;;;;;;;3.63;3.33;;;25.90;65.10;;;;;;5032865;28;20049;-85
2021/08/25 12:03:01;;;;;;;3.63;3.28;;;25.90;66.50;;;;;;5032640;28;20437;-85
2021/08/25 12:05:34;;;;;;;4.32;3.17;;;26.20;68.00;;;;;;5032807;28;20510;-86
2021/08/25 12:08:08;;;;;;;4.05;3.20;;;26.20;66.20;;;;;;5032837;28;20053;-86
2021/08/25 12:10:40;;;;;;;4.65;2.67;;;26.00;64.70;;;;;;5032532;28;20512;-85
2021/08/25 12:13:28;;;;;;;3.63;3.28;;;25.80;66.60;;;;;;5032714;28;20060;-86
2021/08/25 12:15:56;;;;;;;7.20;3.78;;;25.60;67.70;;;;;;5033464;28;20056;-86
2021/08/25 12:18:24;;;;;;;4.85;3.55;;;25.00;66.90;;;;;;5032749;28;20050;-84
2021/08/25 12:20:53;;;;;;;4.50;2.95;;;25.20;68.40;;;;;;5031777;28;20054;-88
2021/08/25 12:23:26;;;;;;;2.95;2.70;;;25.40;65.50;;;;;;5034596;28;20064;-85
2021/08/25 12:25:57;;;;;;;5.43;3.00;;;25.30;66.50;;;;;;5033936;28;20045;-86
2021/08/25 12:28:34;;;;;;;3.63;2.97;;;25.10;65.40;;;;;;5043041;28;20053;-87
2021/08/25 12:31:15;;;;;;;4.82;3.50;;;25.50;66.80;;;;;;5052161;28;20090;-86
2021/08/25 12:33:45;;;;;;;3.70;2.92;;;25.30;67.20;;;;;;5051195;28;20489;-86
2021/08/25 12:36:23;;;;;;;4.13;2.95;;;25.30;68.10;;;;;;5052314;28;20055;-86
2021/08/25 12:39:12;;;;;;;4.15;3.25;;;25.50;67.40;;;;;;5054215;28;20045;-86
2021/08/25 12:41:44;;;;;;;5.10;3.15;;;25.60;66.10;;;;;;5049579;28;20480;-87
2021/08/25 12:44:11;;;;;;;3.88;2.75;;;25.40;66.10;;;;;;5052226;28;20102;-86
2021/08/25 12:47:01;;;;;;;3.60;3.08;;;25.80;67.00;;;;;;5051930;28;20057;-86
2021/08/25 12:49:30;;;;;;;4.22;2.97;;;25.50;65.70;;;;;;5052319;28;20049;-87
2021/08/25 12:51:58;;;;;;;6.07;3.03;;;25.30;68.20;;;;;;5052034;28;20059;-85
2021/08/25 12:54:26;;;;;;;3.45;2.90;;;24.80;68.40;;;;;;5051846;28;20063;-86